Time;durP1;ratioP1;P1;durP2;ratioP2;P2;SDS_P1;SDS_P2;PMS_P1;PMS_P2;Temp;Humidity;BMP_temperature;BMP_pressure;BME280_temperature;BME280_humidity;BME280_pressure;Samples;Min_cycle;Max_cycle;Signal;HPM_P1;HPM_P2
2021/12/15 00:00:20;;;;;;;18.47;10.43;;;;;;;;;;4938000;29;20184;-73
2021/12/15 00:03:25;;;;;;;18.87;11.00;;;;;;;;;;4941803;29;20229;-74
2021/12/15 00:06:30;;;;;;;18.70;11.13;;;;;;;;;;4920332;29;20226;-74
2021/12/15 00:09:34;;;;;;;20.33;11.50;;;;;;;;;;4920102;29;20181;-74
2021/12/15 00:12:39;;;;;;;29.57;13.70;;;;;;;;;;4938059;29;20585;-74
2021/12/15 00:15:44;;;;;;;23.43;12.03;;;;;;;;;;4931237;29;20201;-74
2021/12/15 00:18:48;;;;;;;29.87;14.00;;;;;;;;;;4938070;29;20281;-74
2021/12/15 00:21:54;;;;;;;28.90;13.57;;;;;;;;;;4938463;29;20240;-74
2021/12/15 00:24:58;;;;;;;24.90;13.37;;;;;;;;;;4938526;29;20210;-74
2021/12/15 00:28:02;;;;;;;22.30;12.07;;;;;;;;;;4919688;29;20189;-74
2021/12/15 00:31:09;;;;;;;24.03;12.33;;;;;;;;;;4934254;29;20232;-74
2021/12/15 00:34:15;;;;;;;24.50;12.17;;;;;;;;;;4938542;29;20666;-74
2021/12/15 00:37:20;;;;;;;21.83;12.10;;;;;;;;;;4922111;29;20208;-73
2021/12/15 00:40:25;;;;;;;21.53;11.37;;;;;;;;;;4935799;29;20211;-73
2021/12/15 00:43:30;;;;;;;20.97;11.07;;;;;;;;;;4937310;29;20192;-74
2021/12/15 00:46:35;;;;;;;19.07;10.23;;;;;;;;;;4929538;29;20227;-74
2021/12/15 00:49:40;;;;;;;17.27;10.53;;;;;;;;;;4937264;29;20207;-74
2021/12/15 00:52:45;;;;;;;21.47;10.53;;;;;;;;;;4938215;29;20719;-74
2021/12/15 00:55:50;;;;;;;18.90;10.27;;;;;;;;;;4933131;29;20665;-74
2021/12/15 00:58:54;;;;;;;19.40;11.07;;;;;;;;;;4928269;29;20215;-74
2021/12/15 01:01:59;;;;;;;19.37;10.50;;;;;;;;;;4937660;29;20589;-73
2021/12/15 01:05:06;;;;;;;17.77;10.80;;;;;;;;;;4935221;29;20205;-74
2021/12/15 01:08:23;;;;;;;18.47;10.67;;;;;;;;;;4912156;29;20565;-74
2021/12/15 01:21:35;;;;;;;19.93;10.77;;;;;;;;;;4906961;29;20248;-74
2021/12/15 01:24:40;;;;;;;19.43;10.70;;;;;;;;;;4915313;29;20207;-74
2021/12/15 01:27:45;;;;;;;22.23;11.80;;;;;;;;;;4918626;29;20222;-74
2021/12/15 01:30:51;;;;;;;20.90;11.73;;;;;;;;;;4917773;29;20229;-74
2021/12/15 01:33:55;;;;;;;18.97;10.73;;;;;;;;;;4917436;29;20745;-74
2021/12/15 01:36:59;;;;;;;22.67;11.90;;;;;;;;;;4917725;29;20185;-74
2021/12/15 01:40:07;;;;;;;22.37;12.33;;;;;;;;;;4906872;29;20196;-74
2021/12/15 01:43:33;;;;;;;22.17;12.00;;;;;;;;;;4934930;29;20207;-74
2021/12/15 01:47:01;;;;;;;21.23;11.90;;;;;;;;;;4918571;29;20685;-74
2021/12/15 01:50:06;;;;;;;23.33;13.30;;;;;;;;;;4906439;29;20189;-74
2021/12/15 01:53:11;;;;;;;21.17;12.30;;;;;;;;;;4917474;29;20590;-74
2021/12/15 01:56:15;;;;;;;24.93;12.90;;;;;;;;;;4934260;29;20199;-74
2021/12/15 01:59:23;;;;;;;23.83;12.47;;;;;;;;;;4936251;29;20669;-74
2021/12/15 02:02:27;;;;;;;28.27;13.33;;;;;;;;;;4910310;29;20235;-73
2021/12/15 02:05:33;;;;;;;26.23;13.87;;;;;;;;;;4927983;29;20212;-74
2021/12/15 02:08:38;;;;;;;28.53;13.40;;;;;;;;;;4934887;29;20199;-74
2021/12/15 02:11:43;;;;;;;22.67;12.13;;;;;;;;;;4934194;29;20232;-73
2021/12/15 02:14:47;;;;;;;24.97;13.03;;;;;;;;;;4935859;29;20192;-74
2021/12/15 02:17:52;;;;;;;25.80;13.27;;;;;;;;;;4935924;29;20204;-74
2021/12/15 02:21:01;;;;;;;21.83;12.37;;;;;;;;;;4906165;29;20597;-74
2021/12/15 02:24:05;;;;;;;23.07;11.73;;;;;;;;;;4917168;29;20195;-75
2021/12/15 02:27:13;;;;;;;23.50;12.03;;;;;;;;;;4916754;29;20714;-74
2021/12/15 02:30:38;;;;;;;22.63;12.17;;;;;;;;;;4932782;29;20211;-74
2021/12/15 02:40:12;;;;;;;21.93;11.40;;;;;;;;;;4931841;29;20678;-74
2021/12/15 02:43:16;;;;;;;22.10;11.83;;;;;;;;;;4924550;29;20213;-74
2021/12/15 02:46:21;;;;;;;20.47;12.03;;;;;;;;;;4936250;29;20235;-75
2021/12/15 02:49:27;;;;;;;24.20;11.37;;;;;;;;;;4926610;29;20215;-74
2021/12/15 02:52:33;;;;;;;25.63;13.10;;;;;;;;;;4917224;29;20228;-74
2021/12/15 02:55:38;;;;;;;22.03;11.60;;;;;;;;;;4916425;29;20566;-74
2021/12/15 02:58:51;;;;;;;22.30;11.17;;;;;;;;;;4926964;29;20200;-74
2021/12/15 03:05:25;;;;;;;21.73;11.20;;;;;;;;;;4935844;29;20196;-74
2021/12/15 03:08:58;;;;;;;20.00;11.40;;;;;;;;;;4934481;29;20257;-74
2021/12/15 03:15:31;;;;;;;20.00;10.60;;;;;;;;;;4917077;29;20205;-75
2021/12/15 03:18:36;;;;;;;22.23;11.43;;;;;;;;;;4918100;29;20188;-74
2021/12/15 03:21:40;;;;;;;19.50;10.73;;;;;;;;;;4935591;29;20231;-74
2021/12/15 03:24:45;;;;;;;18.30;10.87;;;;;;;;;;4935943;29;20191;-73
2021/12/15 03:35:04;;;;;;;17.87;9.63;;;;;;;;;;4929254;29;20214;-74
2021/12/15 03:38:07;;;;;;;21.63;10.33;;;;;;;;;;4905509;29;20192;-74
2021/12/15 03:41:12;;;;;;;19.70;10.70;;;;;;;;;;4905138;29;20234;-74
2021/12/15 03:44:16;;;;;;;20.23;10.33;;;;;;;;;;4915788;29;20181;-74
2021/12/15 03:47:24;;;;;;;19.33;10.60;;;;;;;;;;4926851;29;20229;-74
2021/12/15 03:50:29;;;;;;;18.33;9.67;;;;;;;;;;4916556;29;20202;-74
2021/12/15 03:53:33;;;;;;;17.23;9.30;;;;;;;;;;4915641;29;20208;-74
2021/12/15 03:56:40;;;;;;;18.93;10.73;;;;;;;;;;4921662;29;20200;-74
2021/12/15 03:59:45;;;;;;;18.20;10.17;;;;;;;;;;4921195;29;20200;-74
2021/12/15 04:02:50;;;;;;;19.17;9.87;;;;;;;;;;4926727;29;20232;-74
2021/12/15 04:05:58;;;;;;;17.90;10.03;;;;;;;;;;4916948;29;20189;-74
2021/12/15 04:09:05;;;;;;;16.97;9.77;;;;;;;;;;4928330;29;20215;-73
2021/12/15 04:12:10;;;;;;;16.50;9.57;;;;;;;;;;4937978;29;20701;-74
2021/12/15 04:15:55;;;;;;;17.93;10.20;;;;;;;;;;4927307;29;20208;-74
2021/12/15 04:18:45;;;;;;;16.67;8.37;;;;;;;;;;4924923;29;20665;-73
2021/12/15 04:21:50;;;;;;;18.30;9.37;;;;;;;;;;4939107;29;20232;-74
2021/12/15 04:24:56;;;;;;;17.70;9.57;;;;;;;;;;4929503;29;20197;-73
2021/12/15 04:28:12;;;;;;;15.07;8.73;;;;;;;;;;4920227;29;20547;-74
2021/12/15 04:31:23;;;;;;;14.90;8.90;;;;;;;;;;4929725;29;20567;-74
2021/12/15 04:34:27;;;;;;;16.90;9.07;;;;;;;;;;4922158;29;20201;-75
2021/12/15 04:37:31;;;;;;;18.53;9.47;;;;;;;;;;4937862;29;20177;-74
2021/12/15 04:40:35;;;;;;;17.33;8.80;;;;;;;;;;4929626;29;20531;-75
2021/12/15 04:43:40;;;;;;;17.37;9.50;;;;;;;;;;4918819;29;20204;-74
2021/12/15 04:46:57;;;;;;;13.63;8.13;;;;;;;;;;4919110;29;20224;-74
2021/12/15 04:50:04;;;;;;;17.50;9.43;;;;;;;;;;4916973;29;20208;-74
2021/12/15 04:53:09;;;;;;;14.20;8.07;;;;;;;;;;4932764;29;20215;-75
2021/12/15 04:56:15;;;;;;;16.03;9.83;;;;;;;;;;4919011;29;20185;-74
2021/12/15 04:59:19;;;;;;;19.60;9.67;;;;;;;;;;4917034;29;20534;-74
2021/12/15 05:02:24;;;;;;;15.53;9.10;;;;;;;;;;4937746;29;20228;-74
2021/12/15 05:05:29;;;;;;;16.17;8.80;;;;;;;;;;4937827;29;20188;-74
2021/12/15 05:08:35;;;;;;;15.87;9.07;;;;;;;;;;4936363;29;20220;-74
2021/12/15 05:11:40;;;;;;;16.37;9.33;;;;;;;;;;4936857;29;20224;-74
2021/12/15 05:14:44;;;;;;;16.43;9.50;;;;;;;;;;4936681;29;20199;-74
2021/12/15 05:17:49;;;;;;;15.47;9.37;;;;;;;;;;4932252;29;20185;-75
2021/12/15 05:20:54;;;;;;;15.40;9.37;;;;;;;;;;4926702;29;20578;-75
2021/12/15 05:24:07;;;;;;;17.90;9.80;;;;;;;;;;4918603;29;20189;-74
2021/12/15 05:27:15;;;;;;;16.30;9.17;;;;;;;;;;4937317;29;20212;-74
2021/12/15 05:30:20;;;;;;;15.27;9.07;;;;;;;;;;4937345;29;20204;-74
2021/12/15 05:33:24;;;;;;;16.90;8.30;;;;;;;;;;4937134;29;20689;-73
2021/12/15 05:36:29;;;;;;;16.90;9.07;;;;;;;;;;4917295;29;20201;-73
2021/12/15 05:39:33;;;;;;;14.73;8.70;;;;;;;;;;4931422;29;20534;-74
2021/12/15 05:42:38;;;;;;;15.57;9.37;;;;;;;;;;4936098;29;20224;-74
2021/12/15 05:45:43;;;;;;;14.67;8.80;;;;;;;;;;4937056;29;20200;-74
2021/12/15 05:48:47;;;;;;;15.60;8.60;;;;;;;;;;4917923;29;20217;-74
2021/12/15 05:51:51;;;;;;;15.67;8.97;;;;;;;;;;4920520;29;20220;-74
2021/12/15 05:54:57;;;;;;;16.33;8.83;;;;;;;;;;4936065;29;20185;-75
2021/12/15 05:58:02;;;;;;;16.13;8.73;;;;;;;;;;4936779;29;20181;-74
2021/12/15 06:01:07;;;;;;;16.83;9.60;;;;;;;;;;4935901;29;20220;-74
2021/12/15 06:04:13;;;;;;;14.77;8.30;;;;;;;;;;4920973;29;20192;-74
2021/12/15 06:07:17;;;;;;;15.90;9.10;;;;;;;;;;4927996;29;20224;-73
2021/12/15 06:10:24;;;;;;;17.50;8.87;;;;;;;;;;4935822;29;20196;-74
2021/12/15 06:13:29;;;;;;;19.93;9.53;;;;;;;;;;4924856;29;20204;-74
2021/12/15 06:16:35;;;;;;;17.67;9.47;;;;;;;;;;4936744;29;20204;-74
2021/12/15 06:19:39;;;;;;;17.73;8.80;;;;;;;;;;4936626;29;20185;-74
2021/12/15 06:22:45;;;;;;;18.77;9.43;;;;;;;;;;4931747;29;20229;-74
2021/12/15 06:25:53;;;;;;;18.83;9.33;;;;;;;;;;4917459;29;20189;-74
2021/12/15 06:28:57;;;;;;;15.20;9.30;;;;;;;;;;4917415;29;20217;-74
2021/12/15 06:32:03;;;;;;;17.70;10.20;;;;;;;;;;4917331;29;20228;-74
2021/12/15 06:35:08;;;;;;;16.97;9.17;;;;;;;;;;4916426;29;20560;-74
2021/12/15 06:38:12;;;;;;;21.47;10.03;;;;;;;;;;4916711;29;20185;-73
2021/12/15 06:41:17;;;;;;;18.90;10.27;;;;;;;;;;4916242;29;20229;-73
2021/12/15 06:44:21;;;;;;;17.90;9.90;;;;;;;;;;4916679;29;20198;-73
2021/12/15 07:00:42;;;;;;;16.87;10.27;;;;;;;;;;4917765;29;20196;-74
2021/12/15 07:03:46;;;;;;;22.27;11.60;;;;;;;;;;4926548;29;20204;-74
2021/12/15 07:06:52;;;;;;;22.60;11.30;;;;;;;;;;4916454;29;20188;-73
2021/12/15 07:09:56;;;;;;;21.67;11.83;;;;;;;;;;4918577;29;20201;-73
2021/12/15 07:13:00;;;;;;;24.00;11.73;;;;;;;;;;4935006;29;20667;-73
2021/12/15 07:16:08;;;;;;;20.43;10.37;;;;;;;;;;4935211;29;20551;-73
2021/12/15 07:19:32;;;;;;;22.00;11.30;;;;;;;;;;4935856;29;20184;-73
2021/12/15 07:25:49;;;;;;;19.23;10.00;;;;;;;;;;4916680;29;20202;-73
2021/12/15 07:28:53;;;;;;;18.43;10.43;;;;;;;;;;4916676;29;20332;-73
2021/12/15 07:31:59;;;;;;;19.97;10.73;;;;;;;;;;4916660;29;20732;-74
2021/12/15 07:35:05;;;;;;;17.97;9.77;;;;;;;;;;4916521;29;20189;-74
2021/12/15 07:38:09;;;;;;;21.70;10.63;;;;;;;;;;4916670;29;20185;-74
2021/12/15 07:41:30;;;;;;;17.73;10.17;;;;;;;;;;4918484;29;20235;-73
2021/12/15 07:44:36;;;;;;;20.00;10.93;;;;;;;;;;4920404;29;20198;-73
2021/12/15 07:47:40;;;;;;;25.60;14.37;;;;;;;;;;4920107;29;20242;-74
2021/12/15 07:50:49;;;;;;;26.57;12.40;;;;;;;;;;4920201;29;20193;-74
2021/12/15 07:53:53;;;;;;;29.03;13.50;;;;;;;;;;4920091;29;20198;-74
2021/12/15 07:56:58;;;;;;;29.00;14.63;;;;;;;;;;4919219;29;20200;-74
2021/12/15 08:00:03;;;;;;;24.60;13.57;;;;;;;;;;4919468;29;20181;-74
2021/12/15 08:03:16;;;;;;;29.13;15.60;;;;;;;;;;4920111;29;20202;-73
2021/12/15 08:06:26;;;;;;;22.57;12.93;;;;;;;;;;4920175;29;20670;-74
2021/12/15 08:09:30;;;;;;;19.33;10.27;;;;;;;;;;4930269;29;20235;-74
2021/12/15 08:12:35;;;;;;;18.73;10.97;;;;;;;;;;4938645;29;20230;-74
2021/12/15 08:15:39;;;;;;;19.73;11.17;;;;;;;;;;4927388;29;20215;-74
2021/12/15 08:18:43;;;;;;;28.53;13.67;;;;;;;;;;4918966;29;20215;-74
2021/12/15 08:21:47;;;;;;;28.70;15.73;;;;;;;;;;4919814;29;20615;-74
2021/12/15 08:24:51;;;;;;;24.37;12.40;;;;;;;;;;4919903;29;20641;-72
2021/12/15 08:27:55;;;;;;;19.20;11.23;;;;;;;;;;4918840;29;20212;-72
2021/12/15 08:31:00;;;;;;;20.23;11.37;;;;;;;;;;4918855;29;20227;-71
2021/12/15 08:34:06;;;;;;;20.43;11.23;;;;;;;;;;4919679;29;20262;-72
2021/12/15 08:37:13;;;;;;;20.07;11.23;;;;;;;;;;4919568;29;20196;-72
2021/12/15 08:40:19;;;;;;;19.00;10.53;;;;;;;;;;4919303;29;20210;-73
2021/12/15 08:43:24;;;;;;;18.23;10.07;;;;;;;;;;4919449;29;20210;-73
2021/12/15 08:46:32;;;;;;;20.10;10.60;;;;;;;;;;4919506;29;20194;-73
2021/12/15 08:49:37;;;;;;;20.13;11.23;;;;;;;;;;4919380;29;20230;-73
2021/12/15 08:52:41;;;;;;;19.73;10.87;;;;;;;;;;4917870;29;20224;-73
2021/12/15 08:55:47;;;;;;;18.93;10.70;;;;;;;;;;4919274;29;20578;-72
2021/12/15 08:58:53;;;;;;;17.03;9.93;;;;;;;;;;4924440;29;20204;-73
2021/12/15 09:01:57;;;;;;;23.27;12.87;;;;;;;;;;4918347;29;20216;-73
2021/12/15 09:05:01;;;;;;;29.57;15.03;;;;;;;;;;4918985;29;20202;-72
2021/12/15 09:08:08;;;;;;;22.17;13.70;;;;;;;;;;4918787;29;20222;-73
2021/12/15 09:11:17;;;;;;;24.73;13.63;;;;;;;;;;4918089;29;20226;-73
2021/12/15 09:14:21;;;;;;;22.47;13.23;;;;;;;;;;4917429;29;20189;-72
2021/12/15 09:17:26;;;;;;;22.77;12.63;;;;;;;;;;4916891;29;20189;-72
2021/12/15 09:20:33;;;;;;;18.77;11.67;;;;;;;;;;4919963;29;20203;-72
2021/12/15 09:23:38;;;;;;;18.17;10.70;;;;;;;;;;4923313;29;20204;-72
2021/12/15 09:26:42;;;;;;;18.50;10.77;;;;;;;;;;4918416;29;20196;-72
2021/12/15 09:29:46;;;;;;;19.93;11.80;;;;;;;;;;4917474;29;20225;-72
2021/12/15 09:32:50;;;;;;;19.47;11.17;;;;;;;;;;4918088;29;20236;-72
2021/12/15 09:35:54;;;;;;;18.03;10.50;;;;;;;;;;4918078;29;20193;-72
2021/12/15 09:39:10;;;;;;;18.13;11.27;;;;;;;;;;4918096;29;20177;-72
2021/12/15 09:42:19;;;;;;;19.67;10.90;;;;;;;;;;4918115;29;20740;-72
2021/12/15 09:45:51;;;;;;;18.30;11.07;;;;;;;;;;4917271;29;20206;-72
2021/12/15 10:18:48;;;;;;;23.07;14.70;;;;;;;;;;4933249;29;20674;-72
2021/12/15 10:22:05;;;;;;;20.77;13.60;;;;;;;;;;4932992;29;20235;-72
2021/12/15 10:25:20;;;;;;;20.53;12.97;;;;;;;;;;4932744;29;20562;-72
2021/12/15 10:28:28;;;;;;;14.93;10.90;;;;;;;;;;4933149;29;20200;-72
2021/12/15 10:31:33;;;;;;;13.27;10.20;;;;;;;;;;4929087;29;20232;-73
2021/12/15 10:34:37;;;;;;;12.87;9.67;;;;;;;;;;4921135;29;20207;-72
2021/12/15 10:37:42;;;;;;;12.40;9.63;;;;;;;;;;4935301;29;20534;-72
2021/12/15 10:40:59;;;;;;;11.97;9.03;;;;;;;;;;4936351;29;20188;-72
2021/12/15 10:44:10;;;;;;;12.13;9.47;;;;;;;;;;4936051;29;20192;-72
2021/12/15 10:47:19;;;;;;;10.80;8.80;;;;;;;;;;4935771;29;20539;-72
2021/12/15 10:50:24;;;;;;;11.57;9.60;;;;;;;;;;4935122;29;20216;-72
2021/12/15 10:53:31;;;;;;;11.97;9.30;;;;;;;;;;4936233;29;20184;-72
2021/12/15 10:56:39;;;;;;;12.70;9.30;;;;;;;;;;4935313;29;20189;-72
2021/12/15 10:59:52;;;;;;;14.10;9.83;;;;;;;;;;4916970;29;20181;-72
2021/12/15 11:03:05;;;;;;;12.07;9.60;;;;;;;;;;4916509;29;20204;-72
2021/12/15 11:06:27;;;;;;;13.07;9.93;;;;;;;;;;4917027;29;20201;-72
2021/12/15 11:10:02;;;;;;;12.93;9.87;;;;;;;;;;4916679;29;20221;-72
2021/12/15 11:13:13;;;;;;;12.63;9.30;;;;;;;;;;4918541;29;20205;-72
2021/12/15 11:16:30;;;;;;;9.23;7.97;;;;;;;;;;4915208;29;20670;-73
2021/12/15 11:20:06;;;;;;;12.07;8.70;;;;;;;;;;4916613;29;20196;-72
2021/12/15 11:23:13;;;;;;;16.53;11.00;;;;;;;;;;4916890;29;20193;-72
2021/12/15 11:26:18;;;;;;;16.57;11.67;;;;;;;;;;4916852;29;20185;-72
2021/12/15 11:29:54;;;;;;;17.63;12.70;;;;;;;;;;4916521;29;20221;-73
2021/12/15 11:33:04;;;;;;;19.13;13.10;;;;;;;;;;4904711;29;20215;-72
2021/12/15 11:36:37;;;;;;;17.03;12.93;;;;;;;;;;4915720;29;20208;-72
2021/12/15 11:39:42;;;;;;;14.10;9.93;;;;;;;;;;4916747;29;20192;-72
2021/12/15 11:42:46;;;;;;;12.90;9.67;;;;;;;;;;4917795;29;20221;-72
2021/12/15 11:45:50;;;;;;;9.57;6.80;;;;;;;;;;4927372;29;20211;-72
2021/12/15 11:49:40;;;;;;;5.67;4.43;;;;;;;;;;4934865;29;20559;-74
2021/12/15 11:52:48;;;;;;;6.00;5.03;;;;;;;;;;4931255;29;20224;-75
2021/12/15 11:55:52;;;;;;;8.03;6.67;;;;;;;;;;4931369;29;20192;-76
2021/12/15 11:59:12;;;;;;;10.23;7.97;;;;;;;;;;4931284;29;20195;-76
2021/12/15 12:02:25;;;;;;;10.00;6.80;;;;;;;;;;4931749;29;20224;-76
2021/12/15 12:05:33;;;;;;;8.87;7.23;;;;;;;;;;4931986;29;20200;-76
2021/12/15 12:08:50;;;;;;;9.03;7.33;;;;;;;;;;4931971;29;20720;-75
2021/12/15 12:11:58;;;;;;;8.60;6.40;;;;;;;;;;4932162;29;20224;-75
2021/12/15 12:15:06;;;;;;;4.37;3.80;;;;;;;;;;4931441;29;20192;-74
2021/12/15 12:18:13;;;;;;;3.70;3.20;;;;;;;;;;4931786;29;20197;-73
2021/12/15 12:21:18;;;;;;;3.40;3.10;;;;;;;;;;4931814;29;20597;-74
2021/12/15 12:24:22;;;;;;;3.87;3.50;;;;;;;;;;4931985;29;20243;-74
2021/12/15 12:27:31;;;;;;;7.10;5.03;;;;;;;;;;4933407;29;20208;-74
2021/12/15 12:30:41;;;;;;;3.70;3.30;;;;;;;;;;4935023;29;20224;-74
2021/12/15 12:33:46;;;;;;;4.60;3.43;;;;;;;;;;4935241;29;20731;-74
2021/12/15 12:36:52;;;;;;;4.40;3.70;;;;;;;;;;4934950;29;20188;-75
2021/12/15 12:40:04;;;;;;;4.30;3.23;;;;;;;;;;4934692;29;20625;-74
2021/12/15 12:43:30;;;;;;;4.13;3.73;;;;;;;;;;4935056;29;20547;-74
2021/12/15 12:46:48;;;;;;;4.00;3.43;;;;;;;;;;4935079;29;20188;-74
2021/12/15 12:50:13;;;;;;;4.33;2.70;;;;;;;;;;4922693;29;20818;-74
2021/12/15 13:00:41;;;;;;;4.77;3.90;;;;;;;;;;4914728;29;20189;-74
2021/12/15 13:03:55;;;;;;;5.17;4.63;;;;;;;;;;4925263;29;20205;-73
2021/12/15 13:06:59;;;;;;;5.70;4.03;;;;;;;;;;4915642;29;20536;-75
2021/12/15 13:10:03;;;;;;;10.57;4.60;;;;;;;;;;4915641;29;20212;-75
2021/12/15 13:13:13;;;;;;;6.40;5.27;;;;;;;;;;4925465;29;20539;-75
2021/12/15 13:16:39;;;;;;;7.00;5.47;;;;;;;;;;4915471;29;20193;-75
2021/12/15 13:19:44;;;;;;;7.30;5.73;;;;;;;;;;4915263;29;20646;-75
2021/12/15 13:23:05;;;;;;;6.13;5.50;;;;;;;;;;4915288;29;20220;-75
2021/12/15 13:29:37;;;;;;;6.83;5.27;;;;;;;;;;4929083;29;20678;-74
2021/12/15 13:32:48;;;;;;;9.93;5.80;;;;;;;;;;4929206;29;20228;-73
2021/12/15 13:35:55;;;;;;;8.20;6.77;;;;;;;;;;4932879;29;20188;-73
2021/12/15 13:39:02;;;;;;;8.73;5.60;;;;;;;;;;4936649;29;20527;-73
2021/12/15 13:42:13;;;;;;;6.80;4.97;;;;;;;;;;4936462;29;20216;-73
2021/12/15 13:45:30;;;;;;;4.57;3.60;;;;;;;;;;4936399;29;20192;-73
2021/12/15 13:49:11;;;;;;;7.23;4.67;;;;;;;;;;4935212;29;20216;-73
2021/12/15 13:52:18;;;;;;;4.80;3.80;;;;;;;;;;4928721;29;20236;-72
2021/12/15 13:55:38;;;;;;;7.60;6.20;;;;;;;;;;4917991;29;20208;-73
2021/12/15 13:58:42;;;;;;;8.47;6.73;;;;;;;;;;4918422;29;20528;-74
2021/12/15 14:02:15;;;;;;;7.60;5.30;;;;;;;;;;4917265;29;20693;-73
2021/12/15 14:05:26;;;;;;;6.80;5.33;;;;;;;;;;4917967;29;20189;-73
2021/12/15 14:08:45;;;;;;;6.27;5.10;;;;;;;;;;4917974;29;20201;-73
2021/12/15 14:11:51;;;;;;;6.40;5.10;;;;;;;;;;4917077;29;20267;-73
2021/12/15 14:14:55;;;;;;;6.57;4.93;;;;;;;;;;4917418;29;20185;-73
2021/12/15 14:18:15;;;;;;;6.63;5.43;;;;;;;;;;4917641;29;20192;-73
2021/12/15 14:21:19;;;;;;;6.93;5.80;;;;;;;;;;4917976;29;20714;-73
2021/12/15 14:24:23;;;;;;;9.60;6.60;;;;;;;;;;4917800;29;20638;-73
2021/12/15 14:27:27;;;;;;;6.33;5.67;;;;;;;;;;4906078;29;20185;-73
2021/12/15 14:30:31;;;;;;;10.50;6.70;;;;;;;;;;4916410;29;20216;-73
2021/12/15 14:33:42;;;;;;;9.77;7.03;;;;;;;;;;4916461;29;20204;-73
2021/12/15 14:36:53;;;;;;;10.23;7.27;;;;;;;;;;4917820;29;20189;-73
2021/12/15 14:39:57;;;;;;;9.57;6.17;;;;;;;;;;4917773;29;20526;-72
2021/12/15 14:43:02;;;;;;;5.43;4.50;;;;;;;;;;4917479;29;20527;-73
2021/12/15 14:46:33;;;;;;;7.50;6.03;;;;;;;;;;4917456;29;20193;-73
2021/12/15 14:49:56;;;;;;;6.83;6.10;;;;;;;;;;4916547;29;20646;-72
2021/12/15 14:53:03;;;;;;;11.20;6.63;;;;;;;;;;4929751;29;20563;-73
2021/12/15 14:56:07;;;;;;;8.60;6.53;;;;;;;;;;4936502;29;20196;-73
2021/12/15 14:59:17;;;;;;;7.77;6.30;;;;;;;;;;4935915;29;20641;-73
2021/12/15 15:02:25;;;;;;;7.10;5.60;;;;;;;;;;4935264;29;20224;-73
2021/12/15 15:05:50;;;;;;;7.13;6.40;;;;;;;;;;4924093;29;20204;-73
2021/12/15 15:09:09;;;;;;;7.40;6.30;;;;;;;;;;4936141;29;20188;-73
2021/12/15 15:12:22;;;;;;;7.50;5.87;;;;;;;;;;4935660;29;20224;-73
2021/12/15 15:15:32;;;;;;;8.03;6.47;;;;;;;;;;4924078;29;20302;-73
2021/12/15 15:18:38;;;;;;;7.27;6.03;;;;;;;;;;4936055;29;20188;-73
2021/12/15 15:21:46;;;;;;;7.53;6.40;;;;;;;;;;4935032;29;20216;-73
2021/12/15 15:24:52;;;;;;;9.87;7.67;;;;;;;;;;4935648;29;20207;-73
2021/12/15 15:28:00;;;;;;;9.77;8.67;;;;;;;;;;4935649;29;20211;-73
2021/12/15 15:31:10;;;;;;;11.17;8.27;;;;;;;;;;4935514;29;20227;-73
2021/12/15 15:34:15;;;;;;;12.63;9.23;;;;;;;;;;4935894;29;20527;-73
2021/12/15 15:37:28;;;;;;;20.37;13.77;;;;;;;;;;4935912;29;20188;-73
2021/12/15 15:40:43;;;;;;;25.47;14.47;;;;;;;;;;4935498;29;20195;-73
2021/12/15 15:43:51;;;;;;;16.13;11.03;;;;;;;;;;4935512;29;20211;-73
2021/12/15 15:46:55;;;;;;;15.83;10.37;;;;;;;;;;4935753;29;20204;-73
2021/12/15 15:50:04;;;;;;;14.33;10.07;;;;;;;;;;4935577;29;20264;-73
2021/12/15 15:53:10;;;;;;;8.83;7.03;;;;;;;;;;4934678;29;20199;-73
2021/12/15 15:56:17;;;;;;;5.90;5.30;;;;;;;;;;4935715;29;20180;-73
2021/12/15 15:59:26;;;;;;;7.97;5.77;;;;;;;;;;4934725;29;20218;-73
2021/12/15 16:02:30;;;;;;;8.60;7.37;;;;;;;;;;4937571;29;20220;-73
2021/12/15 16:05:34;;;;;;;8.90;7.27;;;;;;;;;;4938177;29;20207;-73
2021/12/15 16:08:43;;;;;;;8.03;6.33;;;;;;;;;;4938964;29;20184;-73
2021/12/15 16:11:51;;;;;;;21.37;14.57;;;;;;;;;;4938989;29;20586;-73
2021/12/15 16:14:56;;;;;;;12.50;9.37;;;;;;;;;;4939182;29;20541;-73
2021/12/15 16:18:00;;;;;;;9.53;8.00;;;;;;;;;;4938029;29;20554;-73
2021/12/15 16:24:12;;;;;;;17.37;12.07;;;;;;;;;;4938685;29;20204;-73
2021/12/15 16:27:16;;;;;;;25.30;16.43;;;;;;;;;;4938063;29;20215;-73
2021/12/15 16:30:26;;;;;;;59.10;38.07;;;;;;;;;;4938818;29;20227;-73
2021/12/15 16:33:37;;;;;;;19.50;13.77;;;;;;;;;;4924053;29;20228;-73
2021/12/15 16:36:41;;;;;;;10.73;8.90;;;;;;;;;;4918638;29;20568;-73
2021/12/15 16:39:49;;;;;;;9.70;7.10;;;;;;;;;;4918902;29;20181;-73
2021/12/15 16:43:11;;;;;;;8.23;7.33;;;;;;;;;;4919452;29;20181;-73
2021/12/15 16:46:41;;;;;;;10.37;7.60;;;;;;;;;;4928080;29;20201;-73
2021/12/15 16:49:48;;;;;;;10.00;6.60;;;;;;;;;;4929472;29;20189;-73
2021/12/15 16:52:52;;;;;;;8.83;7.20;;;;;;;;;;4919143;29;20220;-73
2021/12/15 16:55:56;;;;;;;9.40;7.60;;;;;;;;;;4929600;29;20196;-73
2021/12/15 16:59:42;;;;;;;9.93;8.00;;;;;;;;;;4921423;29;20200;-73
2021/12/15 17:02:59;;;;;;;9.87;8.17;;;;;;;;;;4933667;29;20228;-73
2021/12/15 17:06:04;;;;;;;11.93;7.90;;;;;;;;;;4934214;29;20188;-73
2021/12/15 17:09:21;;;;;;;11.60;8.80;;;;;;;;;;4924337;29;20192;-73
2021/12/15 17:12:33;;;;;;;10.87;8.57;;;;;;;;;;4933523;29;20709;-73
2021/12/15 17:15:56;;;;;;;8.63;7.73;;;;;;;;;;4915338;29;20201;-73
2021/12/15 17:19:13;;;;;;;13.43;8.63;;;;;;;;;;4904657;29;20205;-73
2021/12/15 17:22:18;;;;;;;11.20;8.47;;;;;;;;;;4915281;29;20720;-74
2021/12/15 17:25:31;;;;;;;8.40;6.50;;;;;;;;;;4925406;29;20567;-74
2021/12/15 17:28:48;;;;;;;10.37;8.13;;;;;;;;;;4914009;29;20200;-74
2021/12/15 17:31:55;;;;;;;9.03;7.93;;;;;;;;;;4915906;29;20233;-74
2021/12/15 17:35:01;;;;;;;8.90;7.80;;;;;;;;;;4914681;29;20197;-73
2021/12/15 17:38:21;;;;;;;9.97;8.43;;;;;;;;;;4915625;29;20201;-75
2021/12/15 17:41:31;;;;;;;9.83;7.73;;;;;;;;;;4914665;29;20220;-73
2021/12/15 17:44:45;;;;;;;10.33;8.27;;;;;;;;;;4933170;29;20200;-74
2021/12/15 17:47:56;;;;;;;9.20;7.77;;;;;;;;;;4924670;29;20193;-73
2021/12/15 17:51:00;;;;;;;9.17;7.80;;;;;;;;;;4931679;29;20244;-74
2021/12/15 17:54:05;;;;;;;9.67;7.63;;;;;;;;;;4933256;29;20646;-73
2021/12/15 17:57:11;;;;;;;8.97;7.70;;;;;;;;;;4915279;29;20189;-74
2021/12/15 18:00:23;;;;;;;10.43;8.47;;;;;;;;;;4926907;29;20673;-73
2021/12/15 18:03:32;;;;;;;8.40;7.57;;;;;;;;;;4944126;29;20192;-72
2021/12/15 18:06:37;;;;;;;8.97;7.77;;;;;;;;;;4911536;29;20216;-73
2021/12/15 18:09:45;;;;;;;9.30;7.97;;;;;;;;;;4929540;29;20205;-73
2021/12/15 18:12:49;;;;;;;8.50;7.60;;;;;;;;;;4931847;29;20239;-73
2021/12/15 18:15:57;;;;;;;8.80;7.10;;;;;;;;;;4915357;29;20204;-72
2021/12/15 18:19:03;;;;;;;8.47;7.33;;;;;;;;;;4923021;29;20192;-73
2021/12/15 18:22:08;;;;;;;9.43;7.57;;;;;;;;;;4930849;29;20215;-73
2021/12/15 18:25:14;;;;;;;11.33;8.90;;;;;;;;;;4928000;29;20701;-73
2021/12/15 18:28:19;;;;;;;11.27;9.70;;;;;;;;;;4920222;29;20200;-73
2021/12/15 18:31:28;;;;;;;13.57;9.80;;;;;;;;;;4921452;29;20236;-74
2021/12/15 18:34:32;;;;;;;12.27;9.93;;;;;;;;;;4915785;29;20197;-73
2021/12/15 18:37:37;;;;;;;13.13;10.50;;;;;;;;;;4915535;29;20184;-73
2021/12/15 18:40:43;;;;;;;10.13;8.80;;;;;;;;;;4923042;29;20207;-72
2021/12/15 18:43:49;;;;;;;11.67;9.63;;;;;;;;;;4926376;29;20535;-72
2021/12/15 18:46:54;;;;;;;11.60;9.50;;;;;;;;;;4927873;29;20201;-73
2021/12/15 18:50:03;;;;;;;14.30;11.30;;;;;;;;;;4931516;29;20551;-73
2021/12/15 18:53:08;;;;;;;14.47;11.37;;;;;;;;;;4932267;29;20184;-72
2021/12/15 18:56:14;;;;;;;18.17;12.87;;;;;;;;;;4919746;29;20216;-72
2021/12/15 18:59:21;;;;;;;17.93;13.37;;;;;;;;;;4932403;29;20199;-72
2021/12/15 19:02:28;;;;;;;15.67;12.50;;;;;;;;;;4914654;29;20239;-72
2021/12/15 19:05:32;;;;;;;16.20;12.63;;;;;;;;;;4914197;29;20216;-72
2021/12/15 19:08:38;;;;;;;13.80;11.47;;;;;;;;;;4913770;29;20192;-72
2021/12/15 19:11:42;;;;;;;12.17;10.07;;;;;;;;;;4901722;29;20253;-72
2021/12/15 19:14:48;;;;;;;10.83;9.73;;;;;;;;;;4941775;29;20207;-72
2021/12/15 19:17:53;;;;;;;13.50;10.20;;;;;;;;;;4942486;29;20196;-72
2021/12/15 19:20:59;;;;;;;13.00;9.83;;;;;;;;;;4931696;29;20227;-72
2021/12/15 19:24:06;;;;;;;12.43;9.93;;;;;;;;;;4919237;29;20217;-72
2021/12/15 19:27:14;;;;;;;14.87;11.80;;;;;;;;;;4923535;29;20192;-72
2021/12/15 19:30:25;;;;;;;14.03;11.60;;;;;;;;;;4932402;29;20210;-72
2021/12/15 19:33:29;;;;;;;17.00;12.30;;;;;;;;;;4927537;29;20225;-72
2021/12/15 19:36:34;;;;;;;14.00;12.07;;;;;;;;;;4930923;29;20207;-72
2021/12/15 19:39:38;;;;;;;15.63;11.87;;;;;;;;;;4935479;29;20203;-72
2021/12/15 19:42:42;;;;;;;14.20;11.50;;;;;;;;;;4936170;29;20260;-72
2021/12/15 19:45:49;;;;;;;10.90;8.77;;;;;;;;;;4936134;29;20195;-72
2021/12/15 19:48:54;;;;;;;12.10;9.70;;;;;;;;;;4935439;29;20195;-73
2021/12/15 19:51:59;;;;;;;11.00;9.70;;;;;;;;;;4935831;29;20231;-72
2021/12/15 19:55:06;;;;;;;10.37;9.10;;;;;;;;;;4925693;29;20208;-73
2021/12/15 19:58:11;;;;;;;12.10;10.00;;;;;;;;;;4928968;29;20200;-73
2021/12/15 20:01:20;;;;;;;12.03;10.53;;;;;;;;;;4922134;29;20235;-73